createdAt,value
2022-12-29T00:02:25.295Z,20.50
2022-12-29T00:07:21.240Z,26.70
2022-12-29T00:12:15.898Z,24.33
2022-12-29T00:17:09.549Z,31.20
2022-12-29T00:22:20.118Z,15.47
2022-12-29T00:27:33.063Z,22.38
2022-12-29T00:32:43.952Z,27.63
2022-12-29T00:37:55.302Z,22.00
2022-12-29T00:43:07.539Z,27.00
2022-12-29T00:48:00.843Z,19.83
2022-12-29T00:52:56.849Z,32.10
2022-12-29T00:57:51.493Z,38.20
2022-12-29T01:02:44.891Z,27.07
2022-12-29T01:07:38.232Z,25.87
2022-12-29T01:12:43.052Z,20.17
2022-12-29T01:17:41.451Z,25.10
2022-12-29T01:22:34.690Z,23.93
2022-12-29T01:27:28.407Z,19.93
2022-12-29T01:32:21.615Z,24.33
2022-12-29T01:37:16.262Z,25.67
2022-12-29T01:42:18.483Z,13.90
2022-12-29T01:47:12.163Z,18.30
2022-12-29T01:52:09.012Z,18.37
2022-12-29T01:57:08.996Z,17.77
2022-12-29T02:02:02.790Z,17.38
2022-12-29T02:06:59.438Z,25.43
2022-12-29T02:11:53.205Z,27.80
2022-12-29T02:17:04.323Z,40.87
2022-12-29T02:22:09.876Z,36.43
2022-12-29T02:27:21.930Z,25.07
2022-12-29T02:32:27.339Z,25.53
2022-12-29T02:37:27.675Z,60.83
2022-12-29T02:42:29.237Z,51.15
2022-12-29T02:47:33.325Z,37.10
2022-12-29T02:52:32.549Z,52.63
2022-12-29T02:57:34.482Z,28.60
2022-12-29T03:02:41.836Z,28.80
2022-12-29T03:07:43.505Z,33.77
2022-12-29T03:13:03.111Z,34.60
2022-12-29T03:18:02.385Z,43.03
2022-12-29T03:23:01.723Z,44.70
2022-12-29T03:28:00.915Z,41.87
2022-12-29T03:33:00.963Z,46.20
2022-12-29T03:38:03.213Z,62.73
2022-12-29T03:42:57.496Z,32.33
2022-12-29T03:47:51.017Z,29.43
2022-12-29T03:52:46.803Z,30.33
2022-12-29T03:57:40.238Z,24.93
2022-12-29T04:02:35.972Z,22.43
2022-12-29T04:07:29.847Z,27.10
2022-12-29T04:12:25.696Z,27.10
2022-12-29T04:17:19.081Z,26.50
2022-12-29T04:22:14.910Z,26.33
2022-12-29T04:27:08.309Z,38.27
2022-12-29T04:32:17.167Z,25.17
2022-12-29T04:37:15.780Z,32.53
2022-12-29T04:42:09.098Z,29.60
2022-12-29T04:47:02.381Z,25.87
2022-12-29T04:52:09.443Z,31.33
2022-12-29T04:57:04.091Z,36.80
2022-12-29T05:01:57.820Z,30.63
2022-12-29T05:06:51.220Z,53.17
2022-12-29T05:11:46.326Z,63.43
2022-12-29T05:16:39.854Z,55.23
2022-12-29T05:21:33.115Z,69.53
2022-12-29T05:26:27.418Z,52.53
2022-12-29T05:31:37.235Z,50.87
2022-12-29T05:36:37.460Z,54.43
2022-12-29T05:41:31.623Z,47.70
2022-12-29T05:46:58.324Z,50.47
2022-12-29T05:52:15.627Z,60.43
2022-12-29T05:57:09.105Z,96.17
2022-12-29T06:02:04.725Z,75.93
2022-12-29T06:06:58.422Z,57.87
2022-12-29T06:12:02.147Z,66.23
2022-12-29T06:16:56.286Z,53.30
2022-12-29T06:21:53.603Z,44.80
2022-12-29T06:26:47.282Z,54.03
2022-12-29T06:31:40.651Z,54.10
2022-12-29T06:36:34.012Z,50.97
2022-12-29T06:41:32.375Z,53.03
2022-12-29T06:46:42.993Z,45.30
2022-12-29T06:51:39.230Z,38.90
2022-12-29T06:56:33.835Z,33.60
2022-12-29T07:01:29.385Z,38.30
2022-12-29T07:06:23.552Z,31.60
2022-12-29T07:11:16.985Z,32.00
2022-12-29T07:16:14.525Z,33.50
2022-12-29T07:21:07.873Z,33.37
2022-12-29T07:26:05.414Z,30.83
2022-12-29T07:30:58.737Z,41.37
2022-12-29T07:35:53.689Z,37.77
2022-12-29T07:40:48.912Z,35.50
2022-12-29T07:45:42.180Z,37.97
2022-12-29T07:50:35.871Z,41.40
2022-12-29T07:55:30.646Z,41.60
2022-12-29T08:00:24.440Z,41.23
2022-12-29T08:05:18.757Z,40.17
2022-12-29T08:10:15.876Z,29.47
2022-12-29T08:15:12.480Z,35.37
2022-12-29T08:20:07.059Z,39.83
2022-12-29T08:25:00.326Z,43.70
2022-12-29T08:29:53.729Z,28.87
2022-12-29T08:34:48.502Z,25.40
2022-12-29T08:39:41.708Z,24.67
2022-12-29T08:44:34.891Z,32.87
2022-12-29T08:49:28.268Z,31.47
2022-12-29T08:54:23.048Z,30.90
2022-12-29T08:59:16.364Z,32.83
2022-12-29T09:04:15.524Z,29.43
2022-12-29T09:09:10.638Z,34.93
2022-12-29T09:14:05.907Z,33.70
2022-12-29T09:18:59.361Z,33.97
2022-12-29T09:23:53.073Z,27.97
2022-12-29T09:28:48.890Z,28.13
2022-12-29T09:33:43.616Z,23.65
2022-12-29T09:38:37.060Z,19.80
2022-12-29T09:43:49.394Z,21.15
2022-12-29T09:48:49.529Z,19.33
2022-12-29T09:53:48.252Z,21.25
2022-12-29T09:58:49.101Z,23.00
2022-12-29T10:03:56.907Z,17.30
2022-12-29T10:08:55.165Z,16.73
2022-12-29T10:14:03.069Z,20.85
2022-12-29T10:19:20.289Z,19.08
2022-12-29T10:24:15.151Z,17.27
2022-12-29T10:29:13.801Z,20.92
2022-12-29T10:34:20.843Z,17.17
2022-12-29T10:39:18.949Z,19.20
2022-12-29T10:44:17.152Z,17.00
2022-12-29T10:49:22.214Z,26.63
2022-12-29T10:54:23.960Z,24.80
2022-12-29T10:59:22.843Z,25.42
2022-12-29T11:04:32.951Z,28.85
2022-12-29T11:09:41.928Z,19.85
2022-12-29T11:14:36.771Z,19.37
2022-12-29T11:19:40.743Z,19.85
2022-12-29T11:24:34.348Z,19.25
2022-12-29T11:29:30.309Z,19.65
2022-12-29T11:34:26.882Z,20.50
2022-12-29T11:39:37.054Z,21.75
2022-12-29T11:44:42.311Z,21.48
2022-12-29T11:49:35.635Z,19.13
2022-12-29T11:54:35.649Z,23.48
2022-12-29T11:59:56.127Z,20.23
2022-12-29T12:04:53.435Z,18.33
2022-12-29T12:09:59.069Z,20.98
2022-12-29T12:15:00.521Z,21.75
2022-12-29T12:20:20.368Z,22.42
2022-12-29T12:25:20.327Z,26.75
2022-12-29T12:30:19.802Z,25.08
2022-12-29T12:35:21.347Z,24.27
2022-12-29T12:41:00.267Z,23.88
2022-12-29T12:46:22.727Z,26.20
2022-12-29T12:51:23.058Z,23.15
2022-12-29T12:56:39.122Z,17.13
2022-12-29T13:01:41.329Z,15.40
2022-12-29T13:06:42.576Z,17.20
2022-12-29T13:11:55.506Z,17.27
2022-12-29T13:16:56.369Z,20.30
2022-12-29T13:22:06.989Z,15.50
2022-12-29T13:27:11.803Z,46.28
2022-12-29T13:32:24.289Z,20.15
2022-12-29T13:37:21.118Z,19.88
2022-12-29T13:42:16.369Z,41.03
2022-12-29T13:47:26.777Z,18.40
2022-12-29T13:52:30.730Z,16.52
2022-12-29T13:57:37.345Z,19.58
2022-12-29T14:02:44.944Z,26.08
2022-12-29T14:07:44.020Z,24.35
2022-12-29T14:12:42.242Z,22.27
2022-12-29T14:17:37.433Z,21.88
2022-12-29T14:22:33.499Z,24.10
2022-12-29T14:27:54.516Z,26.42
2022-12-29T14:33:04.315Z,30.33
2022-12-29T14:38:17.037Z,26.38
2022-12-29T14:43:20.955Z,38.58
2022-12-29T14:48:47.420Z,47.97
2022-12-29T14:53:47.115Z,47.38
2022-12-29T14:58:48.701Z,50.60
2022-12-29T15:03:47.829Z,46.92
2022-12-29T15:08:48.899Z,52.10
2022-12-29T15:13:45.382Z,64.30
2022-12-29T15:18:40.415Z,61.25
2022-12-29T15:23:43.853Z,74.57
2022-12-29T15:28:44.610Z,73.70
2022-12-29T15:33:42.599Z,76.72
2022-12-29T15:38:42.275Z,83.77
2022-12-29T15:44:00.383Z,87.00
2022-12-29T15:48:53.675Z,80.17
2022-12-29T15:53:52.551Z,82.90
2022-12-29T15:58:48.710Z,90.60
2022-12-29T16:03:44.158Z,88.27
2022-12-29T16:08:42.202Z,126.93
2022-12-29T16:13:47.306Z,116.77
2022-12-29T16:18:40.690Z,113.00
2022-12-29T16:23:41.533Z,119.73
2022-12-29T16:28:43.224Z,177.50
2022-12-29T16:33:42.496Z,144.43
2022-12-29T16:38:37.244Z,149.23
2022-12-29T16:43:35.371Z,262.03
2022-12-29T16:48:30.488Z,162.43
2022-12-29T16:53:28.352Z,121.77
2022-12-29T16:58:26.513Z,146.43
2022-12-29T17:03:20.000Z,135.03
2022-12-29T17:08:24.038Z,106.90
2022-12-29T17:13:17.562Z,115.30
2022-12-29T17:18:14.046Z,113.77
2022-12-29T17:23:19.884Z,95.20
2022-12-29T17:28:23.413Z,96.00
2022-12-29T17:33:20.254Z,103.97
2022-12-29T17:38:29.153Z,93.67
2022-12-29T17:43:22.559Z,98.63
2022-12-29T17:48:19.726Z,127.77
2022-12-29T17:53:17.672Z,126.33
2022-12-29T17:58:18.402Z,117.90
2022-12-29T18:03:16.432Z,158.30
2022-12-29T18:08:13.454Z,228.87
2022-12-29T18:13:11.714Z,191.03
2022-12-29T18:23:06.170Z,108.63
2022-12-29T18:28:00.933Z,93.50
2022-12-29T18:33:00.297Z,97.80
2022-12-29T18:37:53.641Z,84.90
2022-12-29T18:42:47.216Z,86.07
2022-12-29T18:47:41.873Z,100.30
2022-12-29T18:52:35.253Z,87.70
2022-12-29T18:57:30.734Z,91.27
2022-12-29T19:02:25.838Z,91.37
2022-12-29T19:07:20.456Z,94.27
2022-12-29T19:12:16.955Z,84.97
2022-12-29T19:17:12.473Z,87.40
2022-12-29T19:22:05.721Z,78.60
2022-12-29T19:27:01.479Z,82.83
2022-12-29T19:31:55.766Z,76.73
2022-12-29T19:36:49.130Z,89.73
2022-12-29T19:41:45.293Z,80.70
2022-12-29T19:46:40.049Z,77.00
2022-12-29T19:51:33.666Z,73.27
2022-12-29T19:56:26.954Z,116.53
2022-12-29T20:01:24.209Z,145.67
2022-12-29T20:06:19.944Z,132.60
2022-12-29T20:11:15.563Z,153.33
2022-12-29T20:16:13.122Z,158.77
2022-12-29T20:21:07.754Z,158.67
2022-12-29T20:26:03.073Z,205.23
2022-12-29T20:30:59.377Z,182.10
2022-12-29T20:35:52.963Z,143.57
2022-12-29T20:40:47.673Z,107.53
2022-12-29T20:45:45.252Z,88.00
2022-12-29T20:50:40.954Z,90.80
2022-12-29T20:55:40.918Z,104.67
2022-12-29T21:00:37.616Z,102.90
2022-12-29T21:05:34.836Z,116.93
2022-12-29T21:10:28.261Z,103.10
2022-12-29T21:15:34.655Z,94.33
2022-12-29T21:20:39.795Z,101.17
2022-12-29T21:25:38.039Z,105.40
2022-12-29T21:30:33.049Z,99.00
2022-12-29T21:35:26.708Z,107.23
2022-12-29T21:40:35.672Z,91.20
2022-12-29T21:45:31.055Z,119.67
2022-12-29T21:50:24.290Z,127.47
2022-12-29T21:55:17.576Z,127.40
2022-12-29T22:00:31.125Z,153.00
2022-12-29T22:05:43.225Z,126.03
2022-12-29T22:10:58.415Z,130.18
2022-12-29T22:15:53.148Z,159.33
2022-12-29T22:20:46.548Z,129.60
2022-12-29T22:25:43.674Z,107.53
2022-12-29T22:30:37.486Z,119.00
2022-12-29T22:35:32.292Z,119.20
2022-12-29T22:40:25.826Z,89.60
2022-12-29T22:45:19.329Z,99.63
2022-12-29T22:50:15.749Z,86.97
2022-12-29T22:55:10.996Z,75.90
2022-12-29T23:00:06.174Z,77.07
2022-12-29T23:05:03.574Z,76.97
2022-12-29T23:09:57.536Z,68.37
2022-12-29T23:14:52.772Z,54.37
2022-12-29T23:19:46.049Z,86.40
2022-12-29T23:24:39.363Z,87.07
2022-12-29T23:29:32.725Z,57.37
2022-12-29T23:34:27.638Z,53.17
2022-12-29T23:39:24.512Z,48.90
2022-12-29T23:44:17.787Z,47.67
2022-12-29T23:49:11.172Z,39.63
2022-12-29T23:54:06.443Z,35.87
2022-12-29T23:58:59.669Z,38.03
